createdAt,value
2022-12-18T00:01:39.639Z,99.90
2022-12-18T00:04:41.256Z,100.00
2022-12-18T00:07:42.769Z,99.92
2022-12-18T00:10:45.057Z,99.89
2022-12-18T00:13:47.479Z,99.59
2022-12-18T00:16:49.063Z,99.62
2022-12-18T00:19:50.616Z,99.71
2022-12-18T00:22:56.307Z,99.61
2022-12-18T00:26:02.308Z,99.51
2022-12-18T00:29:14.757Z,99.64
2022-12-18T00:32:18.524Z,99.72
2022-12-18T00:35:20.383Z,99.80
2022-12-18T00:38:21.929Z,100.00
2022-12-18T00:41:45.231Z,99.58
2022-12-18T00:44:46.750Z,99.14
2022-12-18T00:47:48.629Z,99.15
2022-12-18T00:50:50.804Z,99.07
2022-12-18T00:53:52.450Z,98.89
2022-12-18T00:56:54.113Z,98.74
2022-12-18T00:59:55.706Z,98.60
2022-12-18T01:02:57.369Z,98.48
2022-12-18T01:06:00.208Z,98.17
2022-12-18T01:09:03.129Z,98.04
2022-12-18T01:12:05.066Z,98.33
2022-12-18T01:15:07.704Z,98.41
2022-12-18T01:18:09.300Z,98.12
2022-12-18T01:21:14.256Z,98.09
2022-12-18T01:24:15.877Z,97.27
2022-12-18T01:27:17.452Z,97.43
2022-12-18T01:30:19.017Z,97.39
2022-12-18T01:33:20.676Z,97.13
2022-12-18T01:36:25.931Z,97.09
2022-12-18T01:39:27.462Z,96.94
2022-12-18T01:42:29.046Z,96.75
2022-12-18T01:45:32.848Z,96.80
2022-12-18T01:48:34.584Z,96.92
2022-12-18T01:51:36.164Z,97.36
2022-12-18T01:54:37.735Z,97.06
2022-12-18T01:57:40.750Z,97.10
2022-12-18T02:00:42.831Z,97.35
2022-12-18T02:03:45.094Z,97.35
2022-12-18T02:06:51.549Z,97.87
2022-12-18T02:10:03.136Z,98.11
2022-12-18T02:13:37.240Z,98.18
2022-12-18T02:16:42.092Z,98.34
2022-12-18T02:20:32.735Z,98.13
2022-12-18T02:23:51.726Z,98.12
2022-12-18T02:27:00.419Z,97.69
2022-12-18T02:30:06.530Z,97.75
2022-12-18T02:33:12.274Z,97.77
2022-12-18T02:36:17.454Z,97.61
2022-12-18T02:39:22.041Z,97.86
2022-12-18T02:42:42.237Z,97.85
2022-12-18T02:45:53.352Z,97.72
2022-12-18T02:49:06.210Z,97.78
2022-12-18T02:52:41.260Z,97.81
2022-12-18T02:55:56.596Z,98.07
2022-12-18T02:59:03.244Z,97.94
2022-12-18T03:02:23.793Z,98.17
2022-12-18T03:05:37.169Z,97.90
2022-12-18T03:08:43.520Z,97.93
2022-12-18T03:12:09.773Z,97.84
2022-12-18T03:15:23.432Z,98.07
2022-12-18T03:18:38.797Z,97.58
2022-12-18T03:21:52.698Z,98.37
2022-12-18T03:24:56.986Z,98.02
2022-12-18T03:28:03.125Z,98.69
2022-12-18T03:31:09.609Z,98.47
2022-12-18T03:34:19.027Z,98.37
2022-12-18T03:37:22.175Z,98.27
2022-12-18T03:40:32.504Z,97.90
2022-12-18T03:43:59.084Z,97.82
2022-12-18T03:47:19.520Z,98.03
2022-12-18T03:50:47.117Z,98.14
2022-12-18T03:53:56.656Z,97.98
2022-12-18T03:57:34.127Z,98.03
2022-12-18T04:00:36.685Z,97.77
2022-12-18T04:03:45.835Z,97.86
2022-12-18T04:06:49.858Z,97.66
2022-12-18T04:09:57.469Z,97.77
2022-12-18T04:12:59.932Z,97.64
2022-12-18T04:16:02.955Z,97.79
2022-12-18T04:19:05.213Z,97.66
2022-12-18T04:22:13.996Z,97.92
2022-12-18T04:25:20.697Z,98.20
2022-12-18T04:28:31.627Z,98.26
2022-12-18T04:31:33.822Z,97.89
2022-12-18T04:34:35.517Z,97.73
2022-12-18T04:37:37.442Z,98.36
2022-12-18T04:40:40.215Z,98.37
2022-12-18T04:43:50.530Z,98.33
2022-12-18T04:46:52.102Z,97.62
2022-12-18T04:49:53.691Z,97.94
2022-12-18T04:52:55.278Z,97.85
2022-12-18T04:56:11.342Z,97.94
2022-12-18T04:59:13.240Z,97.51
2022-12-18T05:02:14.909Z,97.57
2022-12-18T05:05:16.820Z,97.67
2022-12-18T05:08:18.773Z,97.51
2022-12-18T05:11:21.852Z,97.17
2022-12-18T05:14:23.981Z,97.33
2022-12-18T05:17:25.556Z,97.26
2022-12-18T05:20:28.270Z,97.25
2022-12-18T05:23:30.296Z,97.01
2022-12-18T05:26:31.929Z,96.65
2022-12-18T05:29:33.506Z,96.76
2022-12-18T05:32:35.100Z,96.90
2022-12-18T05:35:36.620Z,96.93
2022-12-18T05:38:40.000Z,96.50
2022-12-18T05:41:41.574Z,96.49
2022-12-18T05:44:44.410Z,96.67
2022-12-18T05:47:45.954Z,96.81
2022-12-18T05:50:48.736Z,96.80
2022-12-18T05:53:50.332Z,97.12
2022-12-18T05:56:51.959Z,97.55
2022-12-18T05:59:53.576Z,97.60
2022-12-18T06:02:55.443Z,97.61
2022-12-18T06:05:57.104Z,97.76
2022-12-18T06:08:58.891Z,97.29
2022-12-18T06:12:00.486Z,97.09
2022-12-18T06:15:02.437Z,97.14
2022-12-18T06:18:04.522Z,97.12
2022-12-18T06:21:06.217Z,97.37
2022-12-18T06:24:07.927Z,97.19
2022-12-18T06:27:09.491Z,97.20
2022-12-18T06:30:12.098Z,97.01
2022-12-18T06:33:14.497Z,96.79
2022-12-18T06:36:16.834Z,96.99
2022-12-18T06:39:18.426Z,97.12
2022-12-18T06:42:19.975Z,97.35
2022-12-18T06:45:21.730Z,97.06
2022-12-18T06:48:23.439Z,97.36
2022-12-18T06:51:25.903Z,97.37
2022-12-18T06:54:27.415Z,97.57
2022-12-18T06:57:29.004Z,97.48
2022-12-18T07:00:30.725Z,96.78
2022-12-18T07:03:32.809Z,96.83
2022-12-18T07:06:34.391Z,97.07
2022-12-18T07:09:36.068Z,97.01
2022-12-18T07:12:37.683Z,96.70
2022-12-18T07:15:39.222Z,96.90
2022-12-18T07:18:40.820Z,97.07
2022-12-18T07:21:42.376Z,97.11
2022-12-18T07:24:44.203Z,97.03
2022-12-18T07:27:45.728Z,97.49
2022-12-18T07:30:47.240Z,96.92
2022-12-18T07:33:49.779Z,97.33
2022-12-18T07:36:51.436Z,97.58
2022-12-18T07:39:53.036Z,97.80
2022-12-18T07:42:54.664Z,97.49
2022-12-18T07:45:56.324Z,97.10
2022-12-18T07:48:57.915Z,97.03
2022-12-18T07:51:59.612Z,97.45
2022-12-18T07:55:01.550Z,97.25
2022-12-18T07:58:05.619Z,97.60
2022-12-18T08:01:16.994Z,97.34
2022-12-18T08:04:18.939Z,97.49
2022-12-18T08:07:20.493Z,97.22
2022-12-18T08:10:23.080Z,96.94
2022-12-18T08:13:26.191Z,97.53
2022-12-18T08:16:36.392Z,96.83
2022-12-18T08:19:38.146Z,96.95
2022-12-18T08:22:40.055Z,96.96
2022-12-18T08:25:41.722Z,96.93
2022-12-18T08:28:50.418Z,96.95
2022-12-18T08:31:52.666Z,96.82
2022-12-18T08:35:00.747Z,96.99
2022-12-18T08:38:10.925Z,96.69
2022-12-18T08:41:18.139Z,96.71
2022-12-18T08:44:39.422Z,96.67
2022-12-18T08:47:46.971Z,96.75
2022-12-18T08:51:00.590Z,96.77
2022-12-18T08:54:09.402Z,96.61
2022-12-18T08:57:11.675Z,96.37
2022-12-18T09:00:14.325Z,96.47
2022-12-18T09:03:24.771Z,97.12
2022-12-18T09:06:31.756Z,96.81
2022-12-18T09:09:33.843Z,96.49
2022-12-18T09:12:35.582Z,96.51
2022-12-18T09:15:48.810Z,96.07
2022-12-18T09:18:50.391Z,96.29
2022-12-18T09:21:52.123Z,96.32
2022-12-18T09:24:53.870Z,96.71
2022-12-18T09:27:55.610Z,96.52
2022-12-18T09:31:06.462Z,96.62
2022-12-18T09:34:16.492Z,96.96
2022-12-18T09:37:18.332Z,96.70
2022-12-18T09:40:27.814Z,96.89
2022-12-18T09:44:08.045Z,97.36
2022-12-18T09:47:21.561Z,97.12
2022-12-18T09:50:32.846Z,96.72
2022-12-18T09:53:40.447Z,97.17
2022-12-18T09:56:44.368Z,96.96
2022-12-18T09:59:58.182Z,96.85
2022-12-18T10:03:15.975Z,97.17
2022-12-18T10:06:22.158Z,96.60
2022-12-18T10:09:59.327Z,96.41
2022-12-18T10:13:15.102Z,96.81
2022-12-18T10:16:53.842Z,96.18
2022-12-18T10:20:16.721Z,96.06
2022-12-18T10:23:27.253Z,95.98
2022-12-18T10:26:28.880Z,95.95
2022-12-18T10:29:30.644Z,95.33
2022-12-18T10:32:32.244Z,95.19
2022-12-18T10:35:34.494Z,95.25
2022-12-18T10:38:36.274Z,95.30
2022-12-18T10:41:37.833Z,95.05
2022-12-18T10:44:39.623Z,94.95
2022-12-18T10:47:50.812Z,95.38
2022-12-18T10:54:23.945Z,95.37
2022-12-18T10:57:38.071Z,95.38
2022-12-18T11:00:39.677Z,95.02
2022-12-18T11:03:47.759Z,95.14
2022-12-18T11:06:58.287Z,95.14
2022-12-18T11:10:02.971Z,94.99
2022-12-18T11:13:23.189Z,94.93
2022-12-18T11:16:24.961Z,95.13
2022-12-18T11:19:35.500Z,95.13
2022-12-18T11:22:39.181Z,95.38
2022-12-18T11:25:51.113Z,95.09
2022-12-18T11:29:10.851Z,94.71
2022-12-18T11:32:31.268Z,94.30
2022-12-18T11:35:51.533Z,94.28
2022-12-18T11:38:56.504Z,94.41
2022-12-18T11:42:25.281Z,94.21
2022-12-18T11:45:34.160Z,94.23
2022-12-18T11:48:50.909Z,93.79
2022-12-18T11:52:15.806Z,94.03
2022-12-18T11:55:28.744Z,93.91
2022-12-18T11:58:58.598Z,94.31
2022-12-18T12:02:18.223Z,94.47
2022-12-18T12:06:04.999Z,94.01
2022-12-18T12:09:27.953Z,93.71
2022-12-18T12:12:48.636Z,93.81
2022-12-18T12:16:17.895Z,94.02
2022-12-18T12:19:35.720Z,94.22
2022-12-18T12:23:17.775Z,94.42
2022-12-18T12:26:37.326Z,93.99
2022-12-18T12:29:52.131Z,94.17
2022-12-18T12:33:01.174Z,94.37
2022-12-18T12:36:14.128Z,94.69
2022-12-18T12:39:22.610Z,93.76
2022-12-18T12:43:00.791Z,92.97
2022-12-18T12:46:10.472Z,93.45
2022-12-18T12:49:18.332Z,93.17
2022-12-18T12:52:34.811Z,93.38
2022-12-18T12:55:36.816Z,93.20
2022-12-18T12:58:57.258Z,93.58
2022-12-18T13:02:02.820Z,93.58
2022-12-18T13:05:38.327Z,93.31
2022-12-18T13:09:01.613Z,93.20
2022-12-18T13:12:33.317Z,93.20
2022-12-18T13:16:01.277Z,93.45
2022-12-18T13:19:02.873Z,93.21
2022-12-18T13:22:04.464Z,93.30
2022-12-18T13:25:30.798Z,93.29
2022-12-18T13:28:41.131Z,93.33
2022-12-18T13:31:42.834Z,93.62
2022-12-18T13:34:45.250Z,93.69
2022-12-18T13:37:53.576Z,93.38
2022-12-18T13:40:57.040Z,93.31
2022-12-18T13:44:30.848Z,93.82
2022-12-18T13:47:36.182Z,93.55
2022-12-18T13:50:37.816Z,93.71
2022-12-18T13:53:43.393Z,93.56
2022-12-18T13:56:47.499Z,94.17
2022-12-18T13:59:49.764Z,93.76
2022-12-18T14:02:52.841Z,93.84
2022-12-18T14:06:02.290Z,93.85
2022-12-18T14:09:04.433Z,93.69
2022-12-18T14:12:25.229Z,93.93
2022-12-18T14:15:34.704Z,93.67
2022-12-18T14:18:39.763Z,93.60
2022-12-18T14:21:41.671Z,93.61
2022-12-18T14:24:43.262Z,93.47
2022-12-18T14:28:09.342Z,93.07
2022-12-18T14:31:21.487Z,93.50
2022-12-18T14:34:27.844Z,92.95
2022-12-18T14:37:29.399Z,93.40
2022-12-18T14:40:31.000Z,92.71
2022-12-18T14:43:35.297Z,92.43
2022-12-18T14:46:39.318Z,92.82
2022-12-18T14:49:43.474Z,92.56
2022-12-18T14:52:45.016Z,92.61
2022-12-18T14:55:49.119Z,92.77
2022-12-18T14:58:55.281Z,92.95
2022-12-18T15:02:02.780Z,93.07
2022-12-18T15:05:18.848Z,93.05
2022-12-18T15:08:37.016Z,92.73
2022-12-18T15:11:41.346Z,93.32
2022-12-18T15:14:43.102Z,93.59
2022-12-18T15:17:44.712Z,93.78
2022-12-18T15:20:53.589Z,93.82
2022-12-18T15:23:56.536Z,94.14
2022-12-18T15:26:59.153Z,94.18
2022-12-18T15:30:22.391Z,94.30
2022-12-18T15:33:31.613Z,94.16
2022-12-18T15:36:37.253Z,94.13
2022-12-18T15:39:38.791Z,94.46
2022-12-18T15:42:59.238Z,94.80
2022-12-18T15:46:06.258Z,94.56
2022-12-18T15:49:08.962Z,94.68
2022-12-18T15:52:14.212Z,94.73
2022-12-18T15:55:38.201Z,94.83
2022-12-18T15:58:40.294Z,94.70
2022-12-18T16:01:44.446Z,94.83
2022-12-18T16:04:49.021Z,95.00
2022-12-18T16:07:50.573Z,95.55
2022-12-18T16:10:52.128Z,95.28
2022-12-18T16:13:53.960Z,95.46
2022-12-18T16:17:01.386Z,95.18
2022-12-18T16:20:03.336Z,95.43
2022-12-18T16:23:05.097Z,95.43
2022-12-18T16:26:06.724Z,95.59
2022-12-18T16:29:08.542Z,95.72
2022-12-18T16:32:15.846Z,95.44
2022-12-18T16:35:17.541Z,95.36
2022-12-18T16:38:19.258Z,95.51
2022-12-18T16:41:33.019Z,95.64
2022-12-18T16:44:35.045Z,95.64
2022-12-18T16:47:38.325Z,95.42
2022-12-18T16:50:39.952Z,95.65
2022-12-18T16:53:41.948Z,95.51
2022-12-18T16:56:44.260Z,95.85
2022-12-18T16:59:46.736Z,95.85
2022-12-18T17:02:48.469Z,95.76
2022-12-18T17:05:53.048Z,95.94
2022-12-18T17:08:59.425Z,95.83
2022-12-18T17:12:04.182Z,95.44
2022-12-18T17:15:06.628Z,95.95
2022-12-18T17:18:08.342Z,95.92
2022-12-18T17:21:11.117Z,96.39
2022-12-18T17:24:12.826Z,95.68
2022-12-18T17:27:15.044Z,95.88
2022-12-18T17:30:16.706Z,95.62
2022-12-18T17:33:18.533Z,95.37
2022-12-18T17:36:21.291Z,95.43
2022-12-18T17:39:22.919Z,96.07
2022-12-18T17:42:26.522Z,96.03
2022-12-18T17:45:28.229Z,95.77
2022-12-18T17:48:30.428Z,95.84
2022-12-18T17:51:32.277Z,96.23
2022-12-18T17:54:33.829Z,96.42
2022-12-18T17:57:37.013Z,96.34
2022-12-18T18:00:39.259Z,96.59
2022-12-18T18:03:41.534Z,96.47
2022-12-18T18:06:43.650Z,96.30
2022-12-18T18:09:45.225Z,96.65
2022-12-18T18:13:05.308Z,96.57
2022-12-18T18:16:07.733Z,96.67
2022-12-18T18:19:11.688Z,96.32
2022-12-18T18:22:13.818Z,96.49
2022-12-18T18:25:15.771Z,96.69
2022-12-18T18:28:21.092Z,96.87
2022-12-18T18:31:25.638Z,96.89
2022-12-18T18:34:30.302Z,96.56
2022-12-18T18:37:31.888Z,96.77
2022-12-18T18:40:33.403Z,96.51
2022-12-18T18:43:35.375Z,96.53
2022-12-18T18:46:37.044Z,96.42
2022-12-18T18:49:38.592Z,96.43
2022-12-18T18:52:40.152Z,96.90
2022-12-18T18:55:43.539Z,96.46
2022-12-18T18:58:45.142Z,96.42
2022-12-18T19:01:47.084Z,96.57
2022-12-18T19:04:48.664Z,96.63
2022-12-18T19:07:50.188Z,96.76
2022-12-18T19:10:57.693Z,96.96
2022-12-18T19:14:00.479Z,96.95
2022-12-18T19:17:02.117Z,96.91
2022-12-18T19:20:05.117Z,96.66
2022-12-18T19:23:06.665Z,96.73
2022-12-18T19:26:27.835Z,96.91
2022-12-18T19:29:30.551Z,96.50
2022-12-18T19:32:32.240Z,96.60
2022-12-18T19:35:34.486Z,96.65
2022-12-18T19:38:36.186Z,96.69
2022-12-18T19:41:38.115Z,96.81
2022-12-18T19:44:39.997Z,97.09
2022-12-18T19:47:41.562Z,96.97
2022-12-18T19:50:43.209Z,97.12
2022-12-18T19:53:45.901Z,97.06
2022-12-18T19:56:47.618Z,97.28
2022-12-18T19:59:49.320Z,97.48
2022-12-18T20:02:51.010Z,97.60
2022-12-18T20:05:52.655Z,96.80
2022-12-18T20:08:58.210Z,96.98
2022-12-18T20:12:03.223Z,96.88
2022-12-18T20:15:05.098Z,97.01
2022-12-18T20:18:07.247Z,97.33
2022-12-18T20:21:13.697Z,97.03
2022-12-18T20:24:15.683Z,96.69
2022-12-18T20:27:19.555Z,97.01
2022-12-18T20:30:21.436Z,97.02
2022-12-18T20:33:23.012Z,96.99
2022-12-18T20:36:27.038Z,96.67
2022-12-18T20:39:31.136Z,96.68
2022-12-18T20:42:32.982Z,96.51
2022-12-18T20:45:34.645Z,96.61
2022-12-18T20:48:37.322Z,96.83
2022-12-18T20:51:40.157Z,96.90
2022-12-18T20:54:41.824Z,96.92
2022-12-18T20:57:43.502Z,96.60
2022-12-18T21:00:45.088Z,96.93
2022-12-18T21:03:47.344Z,97.30
2022-12-18T21:06:54.078Z,96.61
2022-12-18T21:10:02.207Z,96.66
2022-12-18T21:13:06.021Z,96.73
2022-12-18T21:16:08.795Z,97.10
2022-12-18T21:19:14.883Z,96.96
2022-12-18T21:22:16.629Z,96.34
2022-12-18T21:25:18.330Z,96.34
2022-12-18T21:28:19.953Z,96.62
2022-12-18T21:31:23.684Z,96.85
2022-12-18T21:34:28.171Z,96.56
2022-12-18T21:37:29.744Z,96.51
2022-12-18T21:40:31.287Z,96.49
2022-12-18T21:43:51.669Z,96.78
2022-12-18T21:46:58.969Z,96.50
2022-12-18T21:50:05.609Z,96.79
2022-12-18T21:53:07.151Z,96.85
2022-12-18T21:56:09.570Z,96.67
2022-12-18T21:59:15.308Z,96.62
2022-12-18T22:02:20.621Z,96.62
2022-12-18T22:05:23.265Z,96.70
2022-12-18T22:08:25.016Z,96.54
2022-12-18T22:11:26.533Z,96.15
2022-12-18T22:14:28.455Z,96.05
2022-12-18T22:17:30.318Z,96.06
2022-12-18T22:20:32.789Z,96.30
2022-12-18T22:23:34.364Z,95.90
2022-12-18T22:26:40.106Z,96.15
2022-12-18T22:30:00.556Z,96.09
2022-12-18T22:33:02.309Z,96.53
2022-12-18T22:36:07.747Z,96.45
2022-12-18T22:39:13.817Z,96.65
2022-12-18T22:42:15.362Z,96.37
2022-12-18T22:45:17.184Z,96.47
2022-12-18T22:48:18.834Z,96.33
2022-12-18T22:51:21.236Z,96.16
2022-12-18T22:54:23.451Z,96.02
2022-12-18T22:57:25.174Z,96.03
2022-12-18T23:00:26.770Z,96.47
2022-12-18T23:03:28.460Z,96.58
2022-12-18T23:06:30.130Z,96.65
2022-12-18T23:09:32.515Z,97.36
2022-12-18T23:12:34.146Z,96.73
2022-12-18T23:15:42.638Z,96.81
2022-12-18T23:18:44.863Z,96.70
2022-12-18T23:21:46.424Z,97.31
2022-12-18T23:24:48.531Z,97.01
2022-12-18T23:27:50.386Z,97.01
2022-12-18T23:30:51.945Z,96.79
2022-12-18T23:33:55.783Z,96.47
2022-12-18T23:36:58.037Z,96.57
2022-12-18T23:39:59.584Z,96.71
2022-12-18T23:43:01.197Z,96.85
2022-12-18T23:46:03.542Z,96.63
2022-12-18T23:49:06.549Z,96.79
2022-12-18T23:52:08.224Z,96.81
2022-12-18T23:55:09.863Z,96.50
2022-12-18T23:58:21.421Z,96.69
